createdAt,value
2023-03-29T00:02:19.892Z,99084.53
2023-03-29T00:04:47.303Z,99085.50
2023-03-29T00:07:14.435Z,99077.88
2023-03-29T00:09:57.604Z,99074.03
2023-03-29T00:12:45.714Z,99078.56
2023-03-29T00:15:29.454Z,99003.47
2023-03-29T00:18:16.877Z,99068.50
2023-03-29T00:21:14.050Z,99071.22
2023-03-29T00:24:05.864Z,99075.22
2023-03-29T00:26:32.826Z,99082.69
2023-03-29T00:28:59.784Z,99079.59
2023-03-29T00:31:27.667Z,99075.44
2023-03-29T00:33:54.590Z,99081.00
2023-03-29T00:36:22.444Z,99081.28
2023-03-29T00:38:49.543Z,99081.63
2023-03-29T00:41:16.739Z,99071.53
2023-03-29T00:44:00.553Z,99074.16
2023-03-29T00:46:30.509Z,99070.09
2023-03-29T00:49:13.004Z,99073.88
2023-03-29T00:51:41.664Z,99067.69
2023-03-29T00:54:15.205Z,99078.72
2023-03-29T00:56:46.946Z,99071.94
2023-03-29T00:59:20.855Z,99070.44
2023-03-29T01:02:05.991Z,99058.56
2023-03-29T01:04:37.104Z,99062.53
2023-03-29T01:07:09.856Z,99042.72
2023-03-29T01:09:42.346Z,99058.84
2023-03-29T01:12:45.020Z,99073.91
2023-03-29T01:15:48.269Z,99052.44
2023-03-29T01:18:55.647Z,99056.56
2023-03-29T01:22:01.962Z,99050.25
2023-03-29T01:25:09.573Z,99056.47
2023-03-29T01:28:06.027Z,99053.38
2023-03-29T01:30:58.506Z,99055.50
2023-03-29T01:33:31.953Z,99049.69
2023-03-29T01:36:29.444Z,99052.59
2023-03-29T01:38:59.725Z,99053.63
2023-03-29T01:41:52.663Z,99035.78
2023-03-29T01:44:53.696Z,99044.75
2023-03-29T01:47:32.550Z,99034.41
2023-03-29T01:50:05.786Z,98961.03
2023-03-29T01:52:39.085Z,99041.72
2023-03-29T01:55:12.533Z,99041.88
2023-03-29T01:57:43.113Z,99042.72
2023-03-29T02:00:15.727Z,99044.53
2023-03-29T02:02:45.762Z,99048.13
2023-03-29T02:05:15.626Z,99043.00
2023-03-29T02:07:45.207Z,99008.44
2023-03-29T02:10:13.296Z,99004.97
2023-03-29T02:12:40.589Z,99030.47
2023-03-29T02:15:13.684Z,99038.47
2023-03-29T02:17:40.712Z,99029.91
2023-03-29T02:20:20.770Z,99033.47
2023-03-29T02:23:08.615Z,99026.69
2023-03-29T02:25:38.131Z,98997.31
2023-03-29T02:28:07.159Z,99032.22
2023-03-29T02:30:57.802Z,99003.75
2023-03-29T02:33:49.238Z,99037.00
2023-03-29T02:36:22.728Z,99034.56
2023-03-29T02:38:53.015Z,99035.41
2023-03-29T02:41:21.236Z,99039.06
2023-03-29T02:43:49.095Z,99037.38
2023-03-29T02:46:18.782Z,99037.53
2023-03-29T02:48:48.782Z,99038.31
2023-03-29T02:51:21.097Z,99035.84
2023-03-29T02:54:03.374Z,99035.00
2023-03-29T02:56:30.742Z,99034.50
2023-03-29T02:58:57.636Z,99051.91
2023-03-29T03:01:24.918Z,99047.75
2023-03-29T03:03:52.230Z,99050.47
2023-03-29T03:06:19.217Z,99044.34
2023-03-29T03:08:46.092Z,99038.50
2023-03-29T03:11:13.012Z,99044.53
2023-03-29T03:13:39.867Z,99047.06
2023-03-29T03:16:08.145Z,99045.38
2023-03-29T03:18:35.250Z,99044.53
2023-03-29T03:21:02.657Z,98991.34
2023-03-29T03:23:30.666Z,99051.66
2023-03-29T03:25:58.377Z,99044.88
2023-03-29T03:28:25.503Z,99037.16
2023-03-29T03:30:52.549Z,99059.91
2023-03-29T03:33:19.646Z,99051.31
2023-03-29T03:35:49.505Z,99039.94
2023-03-29T03:38:16.849Z,99041.16
2023-03-29T03:40:44.221Z,99021.72
2023-03-29T03:43:11.176Z,99052.69
2023-03-29T03:45:38.174Z,99036.56
2023-03-29T03:48:05.313Z,99054.38
2023-03-29T03:50:32.922Z,99049.13
2023-03-29T03:53:00.094Z,99045.56
2023-03-29T03:55:30.078Z,99043.84
2023-03-29T03:57:57.403Z,99047.41
2023-03-29T04:00:24.610Z,99047.41
2023-03-29T04:02:54.577Z,99045.03
2023-03-29T04:05:21.689Z,99045.72
2023-03-29T04:07:49.093Z,99039.63
2023-03-29T04:10:16.016Z,99045.56
2023-03-29T04:12:42.975Z,99047.25
2023-03-29T04:15:10.722Z,99035.13
2023-03-29T04:17:38.200Z,99050.03
2023-03-29T04:20:12.936Z,99022.72
2023-03-29T04:22:41.346Z,99042.81
2023-03-29T04:25:08.961Z,99046.41
2023-03-29T04:27:36.516Z,99040.31
2023-03-29T04:30:04.193Z,99047.09
2023-03-29T04:32:31.444Z,99035.63
2023-03-29T04:34:58.389Z,99039.19
2023-03-29T04:37:25.432Z,99047.75
2023-03-29T04:39:52.760Z,99041.50
2023-03-29T04:42:19.688Z,99042.16
2023-03-29T04:44:46.775Z,99043.59
2023-03-29T04:47:13.686Z,99039.88
2023-03-29T04:49:41.207Z,99030.00
2023-03-29T04:52:09.388Z,99038.38
2023-03-29T04:54:37.587Z,99038.22
2023-03-29T04:57:08.925Z,99029.38
2023-03-29T04:59:35.977Z,99039.59
2023-03-29T05:02:05.177Z,99036.50
2023-03-29T05:04:33.265Z,99044.78
2023-03-29T05:07:01.922Z,99030.53
2023-03-29T05:09:29.719Z,99037.03
2023-03-29T05:11:56.677Z,99033.94
2023-03-29T05:14:23.736Z,99038.56
2023-03-29T05:16:50.673Z,99042.31
2023-03-29T05:19:17.888Z,99050.66
2023-03-29T05:21:45.631Z,99040.38
2023-03-29T05:24:12.747Z,99036.22
2023-03-29T05:26:40.287Z,99039.91
2023-03-29T05:29:09.174Z,99037.66
2023-03-29T05:31:38.080Z,99040.56
2023-03-29T05:34:05.696Z,99038.09
2023-03-29T05:36:32.680Z,99040.25
2023-03-29T05:38:59.991Z,99035.22
2023-03-29T05:41:27.040Z,99034.53
2023-03-29T05:43:53.969Z,99042.63
2023-03-29T05:46:21.173Z,99044.56
2023-03-29T05:48:48.071Z,99042.81
2023-03-29T05:51:15.113Z,99044.56
2023-03-29T05:53:42.010Z,99035.06
2023-03-29T05:56:11.052Z,99039.44
2023-03-29T05:58:39.546Z,99043.03
2023-03-29T06:01:12.889Z,99042.97
2023-03-29T06:03:39.978Z,99040.44
2023-03-29T06:06:07.475Z,99042.03
2023-03-29T06:08:35.334Z,99036.75
2023-03-29T06:11:09.111Z,99033.16
2023-03-29T06:13:37.337Z,99044.56
2023-03-29T06:16:04.629Z,99045.56
2023-03-29T06:18:32.962Z,99045.97
2023-03-29T06:21:00.013Z,99046.69
2023-03-29T06:23:27.286Z,99053.47
2023-03-29T06:25:55.441Z,99054.78
2023-03-29T06:28:24.296Z,99054.03
2023-03-29T06:30:51.446Z,99048.47
2023-03-29T06:33:18.943Z,99046.84
2023-03-29T06:35:48.464Z,99055.25
2023-03-29T06:38:16.732Z,99050.97
2023-03-29T06:40:44.854Z,99047.00
2023-03-29T06:43:12.150Z,99054.75
2023-03-29T06:45:39.670Z,99060.19
2023-03-29T06:48:08.210Z,99049.91
2023-03-29T06:50:35.953Z,99050.03
2023-03-29T06:53:04.451Z,99045.84
2023-03-29T06:55:32.140Z,99051.34
2023-03-29T06:58:02.165Z,99058.53
2023-03-29T07:00:30.095Z,99046.78
2023-03-29T07:02:58.841Z,99047.91
2023-03-29T07:05:29.046Z,99052.28
2023-03-29T07:08:11.361Z,99047.94
2023-03-29T07:10:42.041Z,99047.94
2023-03-29T07:13:13.470Z,99033.25
2023-03-29T07:15:41.974Z,99044.22
2023-03-29T07:18:10.043Z,99046.22
2023-03-29T07:20:39.171Z,99041.72
2023-03-29T07:23:08.303Z,99039.22
2023-03-29T07:25:35.724Z,99042.03
2023-03-29T07:28:02.846Z,99026.50
2023-03-29T07:30:32.129Z,99040.19
2023-03-29T07:33:00.020Z,99031.63
2023-03-29T07:35:27.589Z,99030.81
2023-03-29T07:37:58.685Z,99038.56
2023-03-29T07:40:26.540Z,99024.63
2023-03-29T07:42:55.680Z,99037.59
2023-03-29T07:45:26.165Z,99039.59
2023-03-29T07:47:59.341Z,99034.25
2023-03-29T07:50:29.392Z,99022.47
2023-03-29T07:52:57.067Z,99043.84
2023-03-29T07:55:23.994Z,99044.41
2023-03-29T07:57:50.934Z,99033.97
2023-03-29T08:00:20.159Z,99036.22
2023-03-29T08:02:50.021Z,99045.81
2023-03-29T08:05:26.126Z,99038.47
2023-03-29T08:08:01.181Z,99030.03
2023-03-29T08:10:28.735Z,99037.75
2023-03-29T08:12:55.873Z,99041.13
2023-03-29T08:15:23.065Z,99046.34
2023-03-29T08:17:50.048Z,99032.25
2023-03-29T08:20:16.972Z,99030.13
2023-03-29T08:22:43.963Z,99017.63
2023-03-29T08:25:12.309Z,99021.78
2023-03-29T08:27:39.881Z,99020.25
2023-03-29T08:30:09.689Z,99022.03
2023-03-29T08:32:38.138Z,99032.09
2023-03-29T08:35:06.934Z,99016.28
2023-03-29T08:37:34.041Z,99016.06
2023-03-29T08:40:01.695Z,99013.03
2023-03-29T08:42:41.154Z,99007.47
2023-03-29T08:45:42.160Z,99006.97
2023-03-29T08:48:14.874Z,99003.91
2023-03-29T08:50:52.873Z,98998.09
2023-03-29T08:53:23.143Z,99004.22
2023-03-29T08:55:53.327Z,98994.56
2023-03-29T08:58:26.011Z,99004.47
2023-03-29T09:01:01.422Z,99002.25
2023-03-29T09:03:45.331Z,98994.72
2023-03-29T09:06:13.797Z,98997.50
2023-03-29T09:08:45.037Z,98993.25
2023-03-29T09:11:32.328Z,98992.72
2023-03-29T09:14:17.322Z,98994.50
2023-03-29T09:17:11.850Z,98991.19
2023-03-29T09:20:08.947Z,98986.84
2023-03-29T09:23:01.078Z,98986.69
2023-03-29T09:26:02.336Z,98985.28
2023-03-29T09:28:41.744Z,98974.66
2023-03-29T09:31:11.724Z,98963.31
2023-03-29T09:33:44.132Z,98965.09
2023-03-29T09:36:13.947Z,98960.28
2023-03-29T09:38:44.298Z,98964.69
2023-03-29T09:41:23.107Z,98957.59
2023-03-29T09:43:52.120Z,98964.38
2023-03-29T09:46:25.283Z,98954.22
2023-03-29T09:48:54.911Z,98948.44
2023-03-29T09:51:27.341Z,98953.19
2023-03-29T09:53:57.249Z,98939.75
2023-03-29T09:56:24.401Z,98944.34
2023-03-29T09:58:51.746Z,98944.19
2023-03-29T10:01:19.352Z,98935.94
2023-03-29T10:03:52.568Z,98925.81
2023-03-29T10:06:21.717Z,98946.81
2023-03-29T10:08:59.225Z,98944.69
2023-03-29T10:11:35.411Z,98946.16
2023-03-29T10:14:12.775Z,98942.16
2023-03-29T10:16:42.125Z,98939.47
2023-03-29T10:19:23.832Z,98932.28
2023-03-29T10:21:53.936Z,98932.41
2023-03-29T10:24:23.267Z,98936.97
2023-03-29T10:26:57.733Z,98934.59
2023-03-29T10:29:26.252Z,98927.38
2023-03-29T10:31:53.779Z,98925.38
2023-03-29T10:34:26.347Z,98931.91
2023-03-29T10:37:01.469Z,98935.78
2023-03-29T10:39:33.500Z,98925.72
2023-03-29T10:42:03.511Z,98917.84
2023-03-29T10:44:33.434Z,98916.22
2023-03-29T10:47:19.725Z,98921.88
2023-03-29T10:49:56.604Z,98921.31
2023-03-29T10:52:24.139Z,98912.97
2023-03-29T10:54:54.716Z,98920.31
2023-03-29T10:58:00.778Z,98912.56
2023-03-29T11:00:41.003Z,98916.91
2023-03-29T11:03:22.576Z,98911.94
2023-03-29T11:06:15.269Z,98907.59
2023-03-29T11:09:08.436Z,98885.59
2023-03-29T11:12:04.403Z,98895.16
2023-03-29T11:14:39.381Z,98893.47
2023-03-29T11:17:15.071Z,98883.34
2023-03-29T11:19:56.859Z,98878.22
2023-03-29T11:22:41.671Z,98869.06
2023-03-29T11:25:20.942Z,98874.72
2023-03-29T11:27:54.597Z,98869.28
2023-03-29T11:30:42.670Z,98869.25
2023-03-29T11:33:35.182Z,98847.72
2023-03-29T11:36:02.049Z,98863.81
2023-03-29T11:38:34.636Z,98866.78
2023-03-29T11:41:23.578Z,98849.63
2023-03-29T11:44:17.869Z,98855.41
2023-03-29T11:46:48.691Z,98841.88
2023-03-29T11:49:25.817Z,98843.81
2023-03-29T11:52:01.549Z,98839.25
2023-03-29T11:54:41.413Z,98832.66
2023-03-29T11:57:47.225Z,98822.13
2023-03-29T12:00:19.144Z,98808.53
2023-03-29T12:02:58.861Z,98822.00
2023-03-29T12:05:31.053Z,98824.06
2023-03-29T12:08:10.504Z,98815.81
2023-03-29T12:10:48.565Z,98810.53
2023-03-29T12:13:15.379Z,98806.13
2023-03-29T12:16:00.161Z,98802.44
2023-03-29T12:18:58.297Z,98804.63
2023-03-29T12:21:29.149Z,98810.06
2023-03-29T12:23:56.152Z,98806.31
2023-03-29T12:26:57.999Z,98794.00
2023-03-29T12:30:02.763Z,98795.53
2023-03-29T12:32:32.299Z,98791.19
2023-03-29T12:35:21.076Z,98793.84
2023-03-29T12:37:58.603Z,98790.63
2023-03-29T12:40:36.707Z,98776.25
2023-03-29T12:43:09.243Z,98779.66
2023-03-29T12:45:48.554Z,98768.25
2023-03-29T12:48:19.410Z,98769.72
2023-03-29T12:51:01.247Z,98777.06
2023-03-29T12:53:39.233Z,98778.31
2023-03-29T12:56:08.866Z,98765.91
2023-03-29T12:58:53.206Z,98762.81
2023-03-29T13:01:29.865Z,98759.31
2023-03-29T13:04:10.932Z,98774.22
2023-03-29T13:06:47.017Z,98766.59
2023-03-29T13:09:57.060Z,98761.56
2023-03-29T13:12:27.416Z,98761.06
2023-03-29T13:15:01.403Z,98759.31
2023-03-29T13:17:34.518Z,98756.41
2023-03-29T13:20:28.784Z,98753.47
2023-03-29T13:23:20.897Z,98746.50
2023-03-29T13:25:53.954Z,98742.50
2023-03-29T13:28:44.019Z,98744.66
2023-03-29T13:31:16.953Z,98749.00
2023-03-29T13:34:14.762Z,98740.81
2023-03-29T13:36:44.416Z,98735.59
2023-03-29T13:39:20.051Z,98737.28
2023-03-29T13:41:52.799Z,98736.06
2023-03-29T13:44:22.953Z,98721.56
2023-03-29T13:47:06.740Z,98714.91
2023-03-29T13:49:35.875Z,98708.84
2023-03-29T13:52:07.364Z,98713.59
2023-03-29T13:54:50.389Z,98712.84
2023-03-29T13:57:25.228Z,98713.78
2023-03-29T14:00:07.406Z,98709.72
2023-03-29T14:02:49.725Z,98714.38
2023-03-29T14:05:42.150Z,98709.59
2023-03-29T14:08:13.538Z,98715.19
2023-03-29T14:10:43.244Z,98697.88
2023-03-29T14:13:15.689Z,98703.94
2023-03-29T14:16:09.260Z,98708.56
2023-03-29T14:18:44.943Z,98689.75
2023-03-29T14:21:14.278Z,98708.41
2023-03-29T14:23:45.233Z,98705.56
2023-03-29T14:26:21.949Z,98700.44
2023-03-29T14:28:51.668Z,98692.09
2023-03-29T14:31:27.204Z,98700.53
2023-03-29T14:33:56.852Z,98682.22
2023-03-29T14:36:25.512Z,98694.44
2023-03-29T14:39:03.293Z,98683.28
2023-03-29T14:41:35.946Z,98691.59
2023-03-29T14:44:05.036Z,98687.53
2023-03-29T14:46:34.108Z,98685.25
2023-03-29T14:49:02.928Z,98688.44
2023-03-29T14:51:31.393Z,98682.44
2023-03-29T14:54:04.585Z,98669.09
2023-03-29T14:56:33.274Z,98679.56
2023-03-29T14:59:03.837Z,98675.34
2023-03-29T15:01:31.511Z,98668.16
2023-03-29T15:04:10.493Z,98660.50
2023-03-29T15:06:41.226Z,98665.00
2023-03-29T15:09:26.711Z,98655.41
2023-03-29T15:11:58.996Z,98664.25
2023-03-29T15:14:37.104Z,98643.59
2023-03-29T15:17:16.440Z,98663.91
2023-03-29T15:19:43.406Z,98653.06
2023-03-29T15:22:11.552Z,98648.03
2023-03-29T15:24:45.308Z,98643.94
2023-03-29T15:27:18.401Z,98659.63
2023-03-29T15:29:47.589Z,98652.16
2023-03-29T15:32:23.667Z,98642.19
2023-03-29T15:35:01.707Z,98645.72
2023-03-29T15:37:29.090Z,98639.53
2023-03-29T15:39:56.691Z,98633.69
2023-03-29T15:42:24.734Z,98641.78
2023-03-29T15:44:56.555Z,98631.75
2023-03-29T15:47:24.330Z,98633.59
2023-03-29T15:49:51.274Z,98638.22
2023-03-29T15:52:18.193Z,98636.63
2023-03-29T15:54:45.104Z,98632.13
2023-03-29T15:57:15.167Z,98622.41
2023-03-29T15:59:43.723Z,98636.09
2023-03-29T16:02:21.950Z,98625.22
2023-03-29T16:04:48.852Z,98625.34
2023-03-29T16:07:18.169Z,98633.53
2023-03-29T16:09:46.602Z,98623.25
2023-03-29T16:12:16.366Z,98619.44
2023-03-29T16:14:43.450Z,98642.59
2023-03-29T16:17:10.620Z,98634.31
2023-03-29T16:19:37.889Z,98631.53
2023-03-29T16:22:07.515Z,98615.84
2023-03-29T16:24:35.763Z,98624.75
2023-03-29T16:27:04.036Z,98617.59
2023-03-29T16:29:31.399Z,98619.50
2023-03-29T16:31:58.419Z,98614.94
2023-03-29T16:34:25.454Z,98616.03
2023-03-29T16:36:53.251Z,98620.84
2023-03-29T16:39:20.207Z,98569.41
2023-03-29T16:41:49.151Z,98607.66
2023-03-29T16:44:20.027Z,98616.63
2023-03-29T16:46:49.104Z,98600.47
2023-03-29T16:49:18.398Z,98622.16
2023-03-29T16:51:47.472Z,98607.50
2023-03-29T16:54:15.573Z,98631.69
2023-03-29T16:56:42.544Z,98624.00
2023-03-29T16:59:09.706Z,98622.19
2023-03-29T17:01:37.313Z,98627.78
2023-03-29T17:04:05.128Z,98603.84
2023-03-29T17:06:32.998Z,98624.00
2023-03-29T17:08:59.927Z,98628.84
2023-03-29T17:11:28.432Z,98635.75
2023-03-29T17:13:55.937Z,98639.13
2023-03-29T17:16:23.578Z,98621.69
2023-03-29T17:18:50.973Z,98631.09
2023-03-29T17:21:17.904Z,98630.78
2023-03-29T17:23:45.058Z,98631.41
2023-03-29T17:26:12.179Z,98641.00
2023-03-29T17:28:39.417Z,98627.41
2023-03-29T17:31:08.047Z,98626.44
2023-03-29T17:33:36.264Z,98608.66
2023-03-29T17:36:04.923Z,98641.00
2023-03-29T17:38:34.456Z,98649.56
2023-03-29T17:41:01.968Z,98650.22
2023-03-29T17:43:28.951Z,98658.97
2023-03-29T17:45:55.947Z,98651.56
2023-03-29T17:48:24.352Z,98654.91
2023-03-29T17:50:51.704Z,98661.59
2023-03-29T17:53:18.737Z,98649.38
2023-03-29T17:55:46.162Z,98663.63
2023-03-29T17:58:13.149Z,98602.59
2023-03-29T18:00:40.168Z,98663.41
2023-03-29T18:03:07.329Z,98654.53
2023-03-29T18:05:36.080Z,98661.88
2023-03-29T18:08:03.136Z,98643.75
2023-03-29T18:10:30.578Z,98667.22
2023-03-29T18:12:57.639Z,98654.47
2023-03-29T18:15:24.626Z,98658.81
2023-03-29T18:17:51.631Z,98670.16
2023-03-29T18:20:20.701Z,98659.56
2023-03-29T18:22:47.592Z,98675.13
2023-03-29T18:26:03.108Z,98677.63
2023-03-29T18:28:31.435Z,98682.06
2023-03-29T18:30:58.853Z,98674.69
2023-03-29T18:33:26.241Z,98686.03
2023-03-29T18:35:53.540Z,98682.16
2023-03-29T18:38:22.756Z,98672.94
2023-03-29T18:40:50.443Z,98675.25
2023-03-29T18:43:17.643Z,98672.06
2023-03-29T18:45:45.403Z,98659.16
2023-03-29T18:48:12.398Z,98661.13
2023-03-29T18:50:39.266Z,98660.63
2023-03-29T18:53:06.172Z,98661.75
2023-03-29T18:55:33.010Z,98643.69
2023-03-29T18:57:59.918Z,98646.66
2023-03-29T19:00:26.848Z,98654.00
2023-03-29T19:02:54.339Z,98654.34
2023-03-29T19:05:21.318Z,98661.81
2023-03-29T19:07:50.230Z,98649.59
2023-03-29T19:10:17.210Z,98646.22
2023-03-29T19:12:44.664Z,98643.19
2023-03-29T19:15:12.285Z,98648.19
2023-03-29T19:17:39.251Z,98633.38
2023-03-29T19:20:10.203Z,98639.41
2023-03-29T19:22:38.676Z,98640.53
2023-03-29T19:25:06.329Z,98645.22
2023-03-29T19:27:33.821Z,98651.03
2023-03-29T19:30:00.895Z,98661.00
2023-03-29T19:32:27.928Z,98656.97
2023-03-29T19:34:54.853Z,98669.94
2023-03-29T19:37:21.875Z,98661.88
2023-03-29T19:39:48.808Z,98666.38
2023-03-29T19:42:15.904Z,98676.53
2023-03-29T19:44:42.777Z,98661.94
2023-03-29T19:47:09.717Z,98665.78
2023-03-29T19:49:39.660Z,98664.41
2023-03-29T19:52:06.600Z,98658.66
2023-03-29T19:54:34.192Z,98662.63
2023-03-29T19:57:02.011Z,98665.75
2023-03-29T19:59:28.976Z,98596.06
2023-03-29T20:01:57.129Z,98651.78
2023-03-29T20:04:24.879Z,98661.84
2023-03-29T20:06:52.182Z,98660.47
2023-03-29T20:09:20.691Z,98663.16
2023-03-29T20:11:49.941Z,98654.03
2023-03-29T20:14:18.512Z,98654.03
2023-03-29T20:16:48.070Z,98660.53
2023-03-29T20:19:18.487Z,98650.31
2023-03-29T20:21:47.041Z,98645.97
2023-03-29T20:24:16.159Z,98653.56
2023-03-29T20:26:45.243Z,98656.94
2023-03-29T20:29:16.168Z,98644.88
2023-03-29T20:31:45.250Z,98646.72
2023-03-29T20:34:13.879Z,98636.19
2023-03-29T20:36:42.501Z,98640.66
2023-03-29T20:39:11.264Z,98637.16
2023-03-29T20:41:40.455Z,98632.84
2023-03-29T20:44:09.192Z,98632.84
2023-03-29T20:46:38.805Z,98638.19
2023-03-29T20:49:09.956Z,98627.50
2023-03-29T20:51:39.710Z,98629.16
2023-03-29T20:54:08.687Z,98606.22
2023-03-29T20:56:40.670Z,98622.16
2023-03-29T20:59:11.561Z,98596.13
2023-03-29T21:01:41.747Z,98619.78
2023-03-29T21:04:11.817Z,98611.63
2023-03-29T21:06:40.665Z,98606.44
2023-03-29T21:09:09.729Z,98617.09
2023-03-29T21:11:38.520Z,98619.63
2023-03-29T21:14:07.842Z,98618.78
2023-03-29T21:16:36.724Z,98621.31
2023-03-29T21:19:05.464Z,98622.16
2023-03-29T21:21:33.921Z,98610.34
2023-03-29T21:24:00.981Z,98603.16
2023-03-29T21:26:28.285Z,98604.16
2023-03-29T21:28:55.659Z,98599.13
2023-03-29T21:31:22.585Z,98601.94
2023-03-29T21:33:49.550Z,98606.44
2023-03-29T21:36:16.499Z,98605.59
2023-03-29T21:38:43.428Z,98607.59
2023-03-29T21:41:12.175Z,98613.59
2023-03-29T21:43:39.804Z,98608.44
2023-03-29T21:46:07.500Z,98603.94
2023-03-29T21:48:34.697Z,98604.06
2023-03-29T21:51:01.799Z,98601.94
2023-03-29T21:53:28.848Z,98599.13
2023-03-29T21:55:55.729Z,98596.59
2023-03-29T21:58:22.716Z,98600.75
2023-03-29T22:00:49.712Z,98595.94
2023-03-29T22:03:17.126Z,98583.84
2023-03-29T22:05:54.684Z,98589.53
2023-03-29T22:08:24.457Z,98583.44
2023-03-29T22:10:55.546Z,98581.16
2023-03-29T22:13:28.316Z,98574.91
2023-03-29T22:15:58.935Z,98582.28
2023-03-29T22:18:30.556Z,98579.00
2023-03-29T22:20:57.829Z,98576.00
2023-03-29T22:23:25.076Z,98571.03
2023-03-29T22:25:51.988Z,98567.59
2023-03-29T22:28:18.894Z,98559.09
2023-03-29T22:30:46.283Z,98559.47
2023-03-29T22:33:13.178Z,98563.50
2023-03-29T22:35:40.095Z,98569.22
2023-03-29T22:38:07.018Z,98564.41
2023-03-29T22:40:33.939Z,98572.78
2023-03-29T22:43:02.666Z,98561.81
2023-03-29T22:45:30.857Z,98557.28
2023-03-29T22:47:57.775Z,98559.63
2023-03-29T22:50:24.716Z,98562.16
2023-03-29T22:52:51.910Z,98563.69
2023-03-29T22:55:18.856Z,98556.50
2023-03-29T22:57:45.812Z,98553.81
2023-03-29T23:00:13.425Z,98558.19
2023-03-29T23:02:41.391Z,98546.66
2023-03-29T23:05:08.699Z,98544.63
2023-03-29T23:07:36.700Z,98551.66
2023-03-29T23:10:07.744Z,98525.03
2023-03-29T23:12:36.466Z,98544.81
2023-03-29T23:15:05.350Z,98541.44
2023-03-29T23:17:32.947Z,98532.91
2023-03-29T23:19:59.894Z,98541.59
2023-03-29T23:22:27.053Z,98537.78
2023-03-29T23:24:54.032Z,98513.63
2023-03-29T23:27:20.991Z,98539.28
2023-03-29T23:29:48.150Z,98535.09
2023-03-29T23:32:15.933Z,98535.63
2023-03-29T23:34:42.816Z,98539.97
2023-03-29T23:37:09.767Z,98528.28
2023-03-29T23:39:36.696Z,98529.94
2023-03-29T23:42:03.769Z,98523.31
2023-03-29T23:44:30.872Z,98530.16
2023-03-29T23:46:57.836Z,98525.31
2023-03-29T23:49:24.936Z,98525.16
2023-03-29T23:51:51.827Z,98526.66
2023-03-29T23:54:18.721Z,98530.03
2023-03-29T23:56:45.674Z,98518.16
2023-03-29T23:59:12.761Z,98524.34
